sensor_id;sensor_type;location;lat;lon;timestamp;pressure;altitude;pressure_sealevel;temperature;humidity
72587;BME280;60621;49.576;11.024;2023-07-02T00:00:43;97609.56;;;19.25;68.45
72587;BME280;60621;49.576;11.024;2023-07-02T00:01:45;97618.63;;;19.40;68.50
72587;BME280;60621;49.576;11.024;2023-07-02T00:02:47;97618.34;;;19.38;68.14
72587;BME280;60621;49.576;11.024;2023-07-02T00:03:48;97609.34;;;19.45;68.08
72587;BME280;60621;49.576;11.024;2023-07-02T00:04:50;97607.19;;;19.53;67.96
72587;BME280;60621;49.576;11.024;2023-07-02T00:05:52;97612.00;;;19.58;67.74
72587;BME280;60621;49.576;11.024;2023-07-02T00:06:55;97613.19;;;19.44;68.13
72587;BME280;60621;49.576;11.024;2023-07-02T00:07:57;97604.75;;;19.33;68.35
72587;BME280;60621;49.576;11.024;2023-07-02T00:08:59;97609.88;;;19.14;69.46
72587;BME280;60621;49.576;11.024;2023-07-02T00:10:00;97605.19;;;19.06;69.94
72587;BME280;60621;49.576;11.024;2023-07-02T00:11:02;97611.06;;;19.01;70.15
72587;BME280;60621;49.576;11.024;2023-07-02T00:12:04;97611.91;;;18.98;70.49
72587;BME280;60621;49.576;11.024;2023-07-02T00:13:05;97607.09;;;19.05;69.78
72587;BME280;60621;49.576;11.024;2023-07-02T00:14:08;97613.31;;;19.15;69.78
72587;BME280;60621;49.576;11.024;2023-07-02T00:15:10;97606.22;;;19.08;70.14
72587;BME280;60621;49.576;11.024;2023-07-02T00:16:11;97609.56;;;19.00;70.57
72587;BME280;60621;49.576;11.024;2023-07-02T00:17:13;97610.09;;;18.95;70.79
72587;BME280;60621;49.576;11.024;2023-07-02T00:18:14;97614.25;;;18.96;70.57
72587;BME280;60621;49.576;11.024;2023-07-02T00:19:19;97612.88;;;18.91;70.70
72587;BME280;60621;49.576;11.024;2023-07-02T00:20:20;97618.63;;;18.89;70.90
72587;BME280;60621;49.576;11.024;2023-07-02T00:21:22;97615.94;;;18.89;71.01
72587;BME280;60621;49.576;11.024;2023-07-02T00:22:23;97610.59;;;18.89;70.74
72587;BME280;60621;49.576;11.024;2023-07-02T00:23:25;97610.63;;;19.15;70.17
72587;BME280;60621;49.576;11.024;2023-07-02T00:24:27;97610.50;;;19.31;69.46
72587;BME280;60621;49.576;11.024;2023-07-02T00:25:31;97612.13;;;19.16;69.90
72587;BME280;60621;49.576;11.024;2023-07-02T00:26:32;97619.19;;;19.23;69.71
72587;BME280;60621;49.576;11.024;2023-07-02T00:27:34;97612.88;;;19.29;69.65
72587;BME280;60621;49.576;11.024;2023-07-02T00:28:35;97614.91;;;19.12;70.13
72587;BME280;60621;49.576;11.024;2023-07-02T00:29:37;97612.53;;;19.02;70.59
72587;BME280;60621;49.576;11.024;2023-07-02T00:30:39;97607.13;;;19.18;69.93
72587;BME280;60621;49.576;11.024;2023-07-02T00:31:40;97611.50;;;19.25;69.62
72587;BME280;60621;49.576;11.024;2023-07-02T00:32:42;97616.94;;;19.21;69.75
72587;BME280;60621;49.576;11.024;2023-07-02T00:33:43;97622.50;;;19.14;70.03
72587;BME280;60621;49.576;11.024;2023-07-02T00:34:45;97611.69;;;19.17;70.10
72587;BME280;60621;49.576;11.024;2023-07-02T00:35:47;97618.00;;;19.11;70.81
72587;BME280;60621;49.576;11.024;2023-07-02T00:36:49;97620.47;;;19.05;70.62
72587;BME280;60621;49.576;11.024;2023-07-02T00:37:50;97628.81;;;18.95;71.13
72587;BME280;60621;49.576;11.024;2023-07-02T00:38:52;97625.88;;;18.89;71.58
72587;BME280;60621;49.576;11.024;2023-07-02T00:39:54;97615.63;;;18.87;71.52
72587;BME280;60621;49.576;11.024;2023-07-02T00:40:55;97622.91;;;18.87;71.58
72587;BME280;60621;49.576;11.024;2023-07-02T00:42:03;97617.44;;;18.78;71.89
72587;BME280;60621;49.576;11.024;2023-07-02T00:43:06;97616.22;;;18.66;72.36
72587;BME280;60621;49.576;11.024;2023-07-02T00:44:07;97621.06;;;18.71;72.18
72587;BME280;60621;49.576;11.024;2023-07-02T00:45:11;97615.56;;;18.62;72.78
72587;BME280;60621;49.576;11.024;2023-07-02T00:46:17;97623.06;;;18.67;72.48
72587;BME280;60621;49.576;11.024;2023-07-02T00:47:21;97615.75;;;18.55;73.42
72587;BME280;60621;49.576;11.024;2023-07-02T00:48:23;97620.47;;;18.63;72.95
72587;BME280;60621;49.576;11.024;2023-07-02T00:49:24;97623.31;;;18.73;72.54
72587;BME280;60621;49.576;11.024;2023-07-02T00:50:27;97614.19;;;18.70;72.70
72587;BME280;60621;49.576;11.024;2023-07-02T00:51:29;97621.47;;;18.70;72.51
72587;BME280;60621;49.576;11.024;2023-07-02T00:52:30;97617.72;;;18.67;72.87
72587;BME280;60621;49.576;11.024;2023-07-02T00:53:32;97619.38;;;18.61;73.08
72587;BME280;60621;49.576;11.024;2023-07-02T00:54:34;97618.97;;;18.62;72.95
72587;BME280;60621;49.576;11.024;2023-07-02T00:55:37;97622.19;;;18.57;73.53
72587;BME280;60621;49.576;11.024;2023-07-02T00:56:39;97614.91;;;18.58;73.53
72587;BME280;60621;49.576;11.024;2023-07-02T00:57:40;97608.59;;;18.52;74.04
72587;BME280;60621;49.576;11.024;2023-07-02T00:58:44;97611.69;;;18.50;73.81
72587;BME280;60621;49.576;11.024;2023-07-02T00:59:48;97608.81;;;18.57;73.63
72587;BME280;60621;49.576;11.024;2023-07-02T01:00:50;97616.03;;;18.73;72.70
72587;BME280;60621;49.576;11.024;2023-07-02T01:01:51;97617.25;;;18.85;72.23
72587;BME280;60621;49.576;11.024;2023-07-02T01:02:54;97616.78;;;18.74;72.62
72587;BME280;60621;49.576;11.024;2023-07-02T01:04:02;97619.63;;;18.66;72.84
72587;BME280;60621;49.576;11.024;2023-07-02T01:05:04;97624.81;;;18.86;72.37
72587;BME280;60621;49.576;11.024;2023-07-02T01:06:06;97616.16;;;18.82;72.41
72587;BME280;60621;49.576;11.024;2023-07-02T01:07:08;97623.81;;;18.67;72.93
72587;BME280;60621;49.576;11.024;2023-07-02T01:08:11;97621.13;;;18.67;72.74
72587;BME280;60621;49.576;11.024;2023-07-02T01:09:13;97630.22;;;18.70;72.53
72587;BME280;60621;49.576;11.024;2023-07-02T01:10:15;97628.88;;;18.78;72.70
72587;BME280;60621;49.576;11.024;2023-07-02T01:11:16;97628.22;;;18.74;72.45
72587;BME280;60621;49.576;11.024;2023-07-02T01:12:19;97630.72;;;18.65;72.74
72587;BME280;60621;49.576;11.024;2023-07-02T01:13:23;97635.53;;;18.57;73.11
72587;BME280;60621;49.576;11.024;2023-07-02T01:14:38;97634.25;;;18.62;73.08
72587;BME280;60621;49.576;11.024;2023-07-02T01:15:39;97635.16;;;18.72;72.59
72587;BME280;60621;49.576;11.024;2023-07-02T01:16:42;97633.34;;;18.68;72.78
72587;BME280;60621;49.576;11.024;2023-07-02T01:17:45;97638.75;;;18.65;72.72
72587;BME280;60621;49.576;11.024;2023-07-02T01:18:49;97639.59;;;18.62;73.13
72587;BME280;60621;49.576;11.024;2023-07-02T01:19:57;97641.19;;;18.59;73.17
72587;BME280;60621;49.576;11.024;2023-07-02T01:21:00;97637.78;;;18.59;73.31
72587;BME280;60621;49.576;11.024;2023-07-02T01:22:03;97632.00;;;18.60;73.14
72587;BME280;60621;49.576;11.024;2023-07-02T01:23:04;97635.94;;;18.56;73.55
72587;BME280;60621;49.576;11.024;2023-07-02T01:24:06;97633.38;;;18.52;73.49
72587;BME280;60621;49.576;11.024;2023-07-02T01:25:08;97630.72;;;18.52;73.59
72587;BME280;60621;49.576;11.024;2023-07-02T01:26:10;97633.00;;;18.66;72.65
72587;BME280;60621;49.576;11.024;2023-07-02T01:27:12;97629.56;;;18.66;72.56
72587;BME280;60621;49.576;11.024;2023-07-02T01:28:14;97634.66;;;18.89;71.83
72587;BME280;60621;49.576;11.024;2023-07-02T01:29:18;97635.00;;;18.91;71.41
72587;BME280;60621;49.576;11.024;2023-07-02T01:30:20;97635.03;;;18.75;72.12
72587;BME280;60621;49.576;11.024;2023-07-02T01:31:21;97636.00;;;18.68;72.44
72587;BME280;60621;49.576;11.024;2023-07-02T01:32:26;97640.75;;;18.61;72.91
72587;BME280;60621;49.576;11.024;2023-07-02T01:33:28;97633.91;;;18.60;72.79
72587;BME280;60621;49.576;11.024;2023-07-02T01:34:30;97638.19;;;18.57;72.83
72587;BME280;60621;49.576;11.024;2023-07-02T01:35:31;97640.31;;;18.79;72.17
72587;BME280;60621;49.576;11.024;2023-07-02T01:36:33;97640.31;;;18.79;72.02
72587;BME280;60621;49.576;11.024;2023-07-02T01:37:35;97643.94;;;18.72;72.22
72587;BME280;60621;49.576;11.024;2023-07-02T01:38:38;97634.00;;;18.73;72.14
72587;BME280;60621;49.576;11.024;2023-07-02T01:39:40;97643.19;;;18.84;71.75
72587;BME280;60621;49.576;11.024;2023-07-02T01:40:41;97642.31;;;18.75;72.08
72587;BME280;60621;49.576;11.024;2023-07-02T01:41:49;97647.44;;;18.69;72.43
72587;BME280;60621;49.576;11.024;2023-07-02T01:42:51;97640.00;;;18.60;72.98
72587;BME280;60621;49.576;11.024;2023-07-02T01:43:52;97650.06;;;18.56;73.14
72587;BME280;60621;49.576;11.024;2023-07-02T01:44:54;97644.38;;;18.54;73.34
72587;BME280;60621;49.576;11.024;2023-07-02T01:45:56;97646.34;;;18.66;72.70
72587;BME280;60621;49.576;11.024;2023-07-02T01:46:58;97647.03;;;18.71;72.33
72587;BME280;60621;49.576;11.024;2023-07-02T01:48:00;97636.34;;;18.71;72.48
72587;BME280;60621;49.576;11.024;2023-07-02T01:49:01;97646.00;;;18.64;72.73
72587;BME280;60621;49.576;11.024;2023-07-02T01:50:04;97646.34;;;18.66;72.86
72587;BME280;60621;49.576;11.024;2023-07-02T01:51:06;97646.53;;;18.59;72.87
72587;BME280;60621;49.576;11.024;2023-07-02T01:52:08;97644.28;;;18.58;73.13
72587;BME280;60621;49.576;11.024;2023-07-02T01:53:09;97651.22;;;18.55;73.46
72587;BME280;60621;49.576;11.024;2023-07-02T01:54:11;97646.09;;;18.61;72.90
72587;BME280;60621;49.576;11.024;2023-07-02T01:55:13;97652.78;;;18.69;72.15
72587;BME280;60621;49.576;11.024;2023-07-02T01:56:14;97650.50;;;18.67;72.16
72587;BME280;60621;49.576;11.024;2023-07-02T01:57:16;97655.19;;;18.63;72.71
72587;BME280;60621;49.576;11.024;2023-07-02T01:58:17;97654.53;;;18.59;72.50
72587;BME280;60621;49.576;11.024;2023-07-02T01:59:19;97659.28;;;18.68;72.15
72587;BME280;60621;49.576;11.024;2023-07-02T02:00:20;97656.94;;;18.70;71.50
72587;BME280;60621;49.576;11.024;2023-07-02T02:01:22;97654.31;;;18.54;72.20
72587;BME280;60621;49.576;11.024;2023-07-02T02:02:24;97661.66;;;18.50;72.36
72587;BME280;60621;49.576;11.024;2023-07-02T02:03:26;97659.19;;;18.42;72.33
72587;BME280;60621;49.576;11.024;2023-07-02T02:04:27;97660.13;;;18.36;72.54
72587;BME280;60621;49.576;11.024;2023-07-02T02:05:29;97664.63;;;18.39;72.47
72587;BME280;60621;49.576;11.024;2023-07-02T02:06:31;97662.88;;;18.32;72.60
72587;BME280;60621;49.576;11.024;2023-07-02T02:07:33;97666.03;;;18.43;72.18
72587;BME280;60621;49.576;11.024;2023-07-02T02:08:37;97672.13;;;18.44;71.75
72587;BME280;60621;49.576;11.024;2023-07-02T02:09:38;97668.75;;;18.56;71.27
72587;BME280;60621;49.576;11.024;2023-07-02T02:10:40;97669.59;;;18.53;71.35
72587;BME280;60621;49.576;11.024;2023-07-02T02:11:44;97662.63;;;18.43;71.58
72587;BME280;60621;49.576;11.024;2023-07-02T02:12:46;97670.88;;;18.32;71.78
72587;BME280;60621;49.576;11.024;2023-07-02T02:13:48;97665.31;;;18.27;72.29
72587;BME280;60621;49.576;11.024;2023-07-02T02:14:50;97665.00;;;18.25;72.25
72587;BME280;60621;49.576;11.024;2023-07-02T02:15:52;97659.19;;;18.42;71.53
72587;BME280;60621;49.576;11.024;2023-07-02T02:16:53;97666.03;;;18.43;71.29
72587;BME280;60621;49.576;11.024;2023-07-02T02:17:55;97667.28;;;18.39;71.65
72587;BME280;60621;49.576;11.024;2023-07-02T02:18:56;97663.97;;;18.35;71.48
72587;BME280;60621;49.576;11.024;2023-07-02T02:19:58;97671.22;;;18.34;71.41
72587;BME280;60621;49.576;11.024;2023-07-02T02:21:00;97668.50;;;18.51;70.99
72587;BME280;60621;49.576;11.024;2023-07-02T02:22:01;97671.59;;;18.49;70.53
72587;BME280;60621;49.576;11.024;2023-07-02T02:23:02;97677.16;;;18.42;70.62
72587;BME280;60621;49.576;11.024;2023-07-02T02:24:05;97675.31;;;18.39;70.64
72587;BME280;60621;49.576;11.024;2023-07-02T02:25:07;97675.25;;;18.26;71.19
72587;BME280;60621;49.576;11.024;2023-07-02T02:26:09;97676.19;;;18.20;71.54
72587;BME280;60621;49.576;11.024;2023-07-02T02:27:10;97670.84;;;18.20;71.62
72587;BME280;60621;49.576;11.024;2023-07-02T02:28:12;97674.69;;;18.19;71.88
72587;BME280;60621;49.576;11.024;2023-07-02T02:29:14;97664.41;;;18.33;70.97
72587;BME280;60621;49.576;11.024;2023-07-02T02:30:16;97674.31;;;18.33;70.84
72587;BME280;60621;49.576;11.024;2023-07-02T02:31:18;97671.81;;;18.26;71.16
72587;BME280;60621;49.576;11.024;2023-07-02T02:32:19;97678.88;;;18.32;71.35
72587;BME280;60621;49.576;11.024;2023-07-02T02:33:26;97672.56;;;18.42;71.01
72587;BME280;60621;49.576;11.024;2023-07-02T02:34:27;97670.28;;;18.41;70.76
72587;BME280;60621;49.576;11.024;2023-07-02T02:35:30;97666.63;;;18.35;70.94
72587;BME280;60621;49.576;11.024;2023-07-02T02:36:31;97671.06;;;18.25;71.18
72587;BME280;60621;49.576;11.024;2023-07-02T02:37:35;97666.16;;;18.24;71.34
72587;BME280;60621;49.576;11.024;2023-07-02T02:38:37;97658.81;;;18.28;70.85
72587;BME280;60621;49.576;11.024;2023-07-02T02:39:39;97658.19;;;18.36;70.35
72587;BME280;60621;49.576;11.024;2023-07-02T02:40:40;97660.78;;;18.40;70.09
72587;BME280;60621;49.576;11.024;2023-07-02T02:41:42;97659.66;;;18.25;70.49
72587;BME280;60621;49.576;11.024;2023-07-02T02:42:43;97655.38;;;18.27;70.16
72587;BME280;60621;49.576;11.024;2023-07-02T02:43:44;97664.31;;;18.21;70.16
72587;BME280;60621;49.576;11.024;2023-07-02T02:44:46;97658.56;;;18.22;70.09
72587;BME280;60621;49.576;11.024;2023-07-02T02:45:47;97657.22;;;18.30;69.62
72587;BME280;60621;49.576;11.024;2023-07-02T02:46:49;97662.75;;;18.23;69.53
72587;BME280;60621;49.576;11.024;2023-07-02T02:47:51;97669.97;;;18.23;69.78
72587;BME280;60621;49.576;11.024;2023-07-02T02:48:52;97666.41;;;18.13;70.22
72587;BME280;60621;49.576;11.024;2023-07-02T02:49:54;97665.09;;;18.05;70.61
72587;BME280;60621;49.576;11.024;2023-07-02T02:50:55;97664.53;;;17.97;70.93
72587;BME280;60621;49.576;11.024;2023-07-02T02:51:57;97665.84;;;18.05;70.63
72587;BME280;60621;49.576;11.024;2023-07-02T02:52:58;97662.53;;;18.01;70.66
72587;BME280;60621;49.576;11.024;2023-07-02T02:54:00;97664.00;;;18.02;70.64
72587;BME280;60621;49.576;11.024;2023-07-02T02:55:02;97672.94;;;18.12;70.17
72587;BME280;60621;49.576;11.024;2023-07-02T02:56:04;97670.09;;;18.03;70.55
72587;BME280;60621;49.576;11.024;2023-07-02T02:57:06;97664.53;;;17.97;70.72
72587;BME280;60621;49.576;11.024;2023-07-02T02:58:07;97668.53;;;18.05;70.54
72587;BME280;60621;49.576;11.024;2023-07-02T02:59:09;97668.00;;;18.10;70.15
72587;BME280;60621;49.576;11.024;2023-07-02T03:00:11;97670.34;;;18.08;70.08
72587;BME280;60621;49.576;11.024;2023-07-02T03:01:13;97664.09;;;18.15;69.72
72587;BME280;60621;49.576;11.024;2023-07-02T03:02:14;97664.16;;;18.11;69.73
72587;BME280;60621;49.576;11.024;2023-07-02T03:03:16;97668.25;;;18.16;69.83
72587;BME280;60621;49.576;11.024;2023-07-02T03:04:21;97671.59;;;18.20;69.44
72587;BME280;60621;49.576;11.024;2023-07-02T03:05:26;97668.59;;;18.02;70.09
72587;BME280;60621;49.576;11.024;2023-07-02T03:06:27;97673.34;;;17.94;70.33
72587;BME280;60621;49.576;11.024;2023-07-02T03:07:29;97664.78;;;17.86;70.92
72587;BME280;60621;49.576;11.024;2023-07-02T03:08:31;97676.03;;;17.78;71.39
72587;BME280;60621;49.576;11.024;2023-07-02T03:09:33;97673.53;;;17.87;70.84
72587;BME280;60621;49.576;11.024;2023-07-02T03:10:35;97672.44;;;18.01;70.34
72587;BME280;60621;49.576;11.024;2023-07-02T03:11:36;97672.53;;;17.97;70.17
72587;BME280;60621;49.576;11.024;2023-07-02T03:12:38;97665.84;;;18.05;69.90
72587;BME280;60621;49.576;11.024;2023-07-02T03:13:39;97675.28;;;17.94;69.96
72587;BME280;60621;49.576;11.024;2023-07-02T03:14:41;97680.72;;;17.90;70.53
72587;BME280;60621;49.576;11.024;2023-07-02T03:15:43;97684.03;;;17.94;69.87
72587;BME280;60621;49.576;11.024;2023-07-02T03:16:44;97686.88;;;17.87;70.35
72587;BME280;60621;49.576;11.024;2023-07-02T03:17:47;97683.53;;;17.83;70.29
72587;BME280;60621;49.576;11.024;2023-07-02T03:18:49;97679.81;;;17.80;70.66
72587;BME280;60621;49.576;11.024;2023-07-02T03:19:50;97687.38;;;17.82;70.59
72587;BME280;60621;49.576;11.024;2023-07-02T03:20:52;97692.28;;;17.83;70.09
72587;BME280;60621;49.576;11.024;2023-07-02T03:21:54;97685.53;;;17.79;70.09
72587;BME280;60621;49.576;11.024;2023-07-02T03:22:55;97689.38;;;17.78;70.09
72587;BME280;60621;49.576;11.024;2023-07-02T03:23:57;97685.13;;;17.80;70.07
72587;BME280;60621;49.576;11.024;2023-07-02T03:24:58;97687.19;;;17.73;70.31
72587;BME280;60621;49.576;11.024;2023-07-02T03:26:00;97689.28;;;17.98;69.63
72587;BME280;60621;49.576;11.024;2023-07-02T03:27:02;97685.88;;;17.97;69.36
72587;BME280;60621;49.576;11.024;2023-07-02T03:28:04;97685.09;;;18.13;68.83
72587;BME280;60621;49.576;11.024;2023-07-02T03:29:06;97684.47;;;18.09;68.79
72587;BME280;60621;49.576;11.024;2023-07-02T03:30:07;97695.94;;;17.89;69.38
72587;BME280;60621;49.576;11.024;2023-07-02T03:31:10;97693.28;;;17.89;69.02
72587;BME280;60621;49.576;11.024;2023-07-02T03:32:11;97692.88;;;17.91;69.19
72587;BME280;60621;49.576;11.024;2023-07-02T03:33:13;97694.53;;;17.85;69.50
72587;BME280;60621;49.576;11.024;2023-07-02T03:34:14;97694.53;;;18.01;68.83
72587;BME280;60621;49.576;11.024;2023-07-02T03:35:16;97684.47;;;18.09;68.93
72587;BME280;60621;49.576;11.024;2023-07-02T03:36:17;97692.53;;;18.05;68.77
72587;BME280;60621;49.576;11.024;2023-07-02T03:37:19;97692.97;;;17.87;69.64
72587;BME280;60621;49.576;11.024;2023-07-02T03:38:21;97698.03;;;17.82;69.62
72587;BME280;60621;49.576;11.024;2023-07-02T03:39:22;97710.38;;;17.76;70.00
72587;BME280;60621;49.576;11.024;2023-07-02T03:40:24;97703.75;;;17.64;70.21
72587;BME280;60621;49.576;11.024;2023-07-02T03:41:27;97706.78;;;17.66;69.93
72587;BME280;60621;49.576;11.024;2023-07-02T03:42:29;97711.75;;;17.64;70.01
72587;BME280;60621;49.576;11.024;2023-07-02T03:43:30;97708.84;;;17.58;70.28
72587;BME280;60621;49.576;11.024;2023-07-02T03:44:32;97712.50;;;17.64;70.24
72587;BME280;60621;49.576;11.024;2023-07-02T03:45:33;97711.47;;;17.78;69.69
72587;BME280;60621;49.576;11.024;2023-07-02T03:46:35;97714.72;;;17.86;69.18
72587;BME280;60621;49.576;11.024;2023-07-02T03:47:37;97708.81;;;17.95;68.97
72587;BME280;60621;49.576;11.024;2023-07-02T03:48:38;97706.47;;;17.97;68.49
72587;BME280;60621;49.576;11.024;2023-07-02T03:49:41;97712.38;;;17.88;68.88
72587;BME280;60621;49.576;11.024;2023-07-02T03:50:42;97715.72;;;17.76;69.40
72587;BME280;60621;49.576;11.024;2023-07-02T03:51:44;97711.19;;;17.73;69.51
72587;BME280;60621;49.576;11.024;2023-07-02T03:52:45;97716.47;;;17.76;69.43
72587;BME280;60621;49.576;11.024;2023-07-02T03:53:47;97711.97;;;17.73;69.41
72587;BME280;60621;49.576;11.024;2023-07-02T03:54:49;97714.94;;;17.75;68.94
72587;BME280;60621;49.576;11.024;2023-07-02T03:55:50;97716.88;;;17.75;68.81
72587;BME280;60621;49.576;11.024;2023-07-02T03:56:52;97719.13;;;17.76;68.85
72587;BME280;60621;49.576;11.024;2023-07-02T03:57:53;97719.31;;;17.85;68.73
72587;BME280;60621;49.576;11.024;2023-07-02T03:58:55;97725.97;;;17.94;68.10
72587;BME280;60621;49.576;11.024;2023-07-02T03:59:56;97728.56;;;17.81;68.41
72587;BME280;60621;49.576;11.024;2023-07-02T04:00:58;97731.38;;;17.74;68.64
72587;BME280;60621;49.576;11.024;2023-07-02T04:02:00;97728.09;;;17.66;69.12
72587;BME280;60621;49.576;11.024;2023-07-02T04:03:01;97726.53;;;17.85;68.33
72587;BME280;60621;49.576;11.024;2023-07-02T04:04:03;97736.63;;;17.94;67.69
72587;BME280;60621;49.576;11.024;2023-07-02T04:05:07;97733.22;;;17.77;67.80
72587;BME280;60621;49.576;11.024;2023-07-02T04:06:09;97728.13;;;17.82;67.51
72587;BME280;60621;49.576;11.024;2023-07-02T04:07:10;97730.88;;;17.79;67.49
72587;BME280;60621;49.576;11.024;2023-07-02T04:08:12;97734.78;;;17.74;67.76
72587;BME280;60621;49.576;11.024;2023-07-02T04:09:14;97737.34;;;17.61;68.16
72587;BME280;60621;49.576;11.024;2023-07-02T04:10:15;97739.72;;;17.56;68.58
72587;BME280;60621;49.576;11.024;2023-07-02T04:11:17;97740.41;;;17.60;68.48
72587;BME280;60621;49.576;11.024;2023-07-02T04:12:18;97738.81;;;17.82;67.17
72587;BME280;60621;49.576;11.024;2023-07-02T04:13:20;97743.22;;;17.89;66.64
72587;BME280;60621;49.576;11.024;2023-07-02T04:14:21;97743.22;;;17.89;66.74
72587;BME280;60621;49.576;11.024;2023-07-02T04:15:23;97738.13;;;17.78;66.64
72587;BME280;60621;49.576;11.024;2023-07-02T04:16:26;97736.00;;;17.70;66.70
72587;BME280;60621;49.576;11.024;2023-07-02T04:17:28;97751.06;;;17.80;66.43
72587;BME280;60621;49.576;11.024;2023-07-02T04:18:30;97745.50;;;17.71;66.62
72587;BME280;60621;49.576;11.024;2023-07-02T04:19:31;97747.66;;;17.59;66.38
72587;BME280;60621;49.576;11.024;2023-07-02T04:20:33;97742.81;;;17.54;66.78
72587;BME280;60621;49.576;11.024;2023-07-02T04:21:34;97745.28;;;17.45;67.08
72587;BME280;60621;49.576;11.024;2023-07-02T04:22:36;97746.88;;;17.43;67.15
72587;BME280;60621;49.576;11.024;2023-07-02T04:23:37;97747.28;;;17.41;67.43
72587;BME280;60621;49.576;11.024;2023-07-02T04:24:39;97751.63;;;17.51;67.09
72587;BME280;60621;49.576;11.024;2023-07-02T04:25:41;97757.44;;;17.66;66.02
72587;BME280;60621;49.576;11.024;2023-07-02T04:26:58;97747.81;;;17.52;66.86
72587;BME280;60621;49.576;11.024;2023-07-02T04:28:21;97755.22;;;17.45;66.03
72587;BME280;60621;49.576;11.024;2023-07-02T04:29:22;97758.69;;;17.41;66.58
72587;BME280;60621;49.576;11.024;2023-07-02T04:30:25;97754.88;;;17.43;66.43
72587;BME280;60621;49.576;11.024;2023-07-02T04:31:26;97752.06;;;17.50;65.97
72587;BME280;60621;49.576;11.024;2023-07-02T04:32:28;97754.41;;;17.64;65.44
72587;BME280;60621;49.576;11.024;2023-07-02T04:33:30;97753.47;;;17.74;64.79
72587;BME280;60621;49.576;11.024;2023-07-02T04:34:37;97763.53;;;17.66;65.16
72587;BME280;60621;49.576;11.024;2023-07-02T04:35:38;97763.59;;;17.63;65.24
72587;BME280;60621;49.576;11.024;2023-07-02T04:36:40;97758.84;;;17.71;64.64
72587;BME280;60621;49.576;11.024;2023-07-02T04:37:41;97760.94;;;17.63;64.77
72587;BME280;60621;49.576;11.024;2023-07-02T04:38:43;97757.25;;;17.57;64.83
72587;BME280;60621;49.576;11.024;2023-07-02T04:39:44;97764.16;;;17.54;65.10
72587;BME280;60621;49.576;11.024;2023-07-02T04:40:46;97770.97;;;17.55;65.12
72587;BME280;60621;49.576;11.024;2023-07-02T04:41:48;97767.91;;;17.57;64.28
72587;BME280;60621;49.576;11.024;2023-07-02T04:42:53;97768.75;;;17.54;64.12
72587;BME280;60621;49.576;11.024;2023-07-02T04:44:00;97771.03;;;17.52;63.74
72587;BME280;60621;49.576;11.024;2023-07-02T04:45:04;97762.41;;;17.48;63.80
72587;BME280;60621;49.576;11.024;2023-07-02T04:46:06;97774.13;;;17.50;63.98
72587;BME280;60621;49.576;11.024;2023-07-02T04:47:09;97766.81;;;17.54;63.92
72587;BME280;60621;49.576;11.024;2023-07-02T04:48:11;97762.22;;;17.55;63.93
72587;BME280;60621;49.576;11.024;2023-07-02T04:49:14;97771.03;;;17.52;63.78
72587;BME280;60621;49.576;11.024;2023-07-02T04:50:17;97772.16;;;17.54;63.99
72587;BME280;60621;49.576;11.024;2023-07-02T04:51:20;97764.34;;;17.63;63.74
72587;BME280;60621;49.576;11.024;2023-07-02T04:52:22;97765.50;;;17.62;63.56
72587;BME280;60621;49.576;11.024;2023-07-02T04:53:23;97772.03;;;17.61;63.45
72587;BME280;60621;49.576;11.024;2023-07-02T04:54:25;97769.00;;;17.59;63.21
72587;BME280;60621;49.576;11.024;2023-07-02T04:55:27;97777.00;;;17.59;63.53
72587;BME280;60621;49.576;11.024;2023-07-02T04:56:28;97778.22;;;17.55;63.57
72587;BME280;60621;49.576;11.024;2023-07-02T04:57:30;97774.75;;;17.58;63.72
72587;BME280;60621;49.576;11.024;2023-07-02T04:58:31;97776.00;;;17.70;62.91
72587;BME280;60621;49.576;11.024;2023-07-02T04:59:32;97782.19;;;17.66;63.10
72587;BME280;60621;49.576;11.024;2023-07-02T05:00:34;97786.56;;;17.77;63.11
72587;BME280;60621;49.576;11.024;2023-07-02T05:01:35;97781.25;;;17.77;62.90
72587;BME280;60621;49.576;11.024;2023-07-02T05:02:38;97789.31;;;17.89;62.74
72587;BME280;60621;49.576;11.024;2023-07-02T05:03:40;97787.44;;;17.90;62.74
72587;BME280;60621;49.576;11.024;2023-07-02T05:04:41;97782.50;;;17.88;62.65
72587;BME280;60621;49.576;11.024;2023-07-02T05:05:43;97780.34;;;18.00;62.18
72587;BME280;60621;49.576;11.024;2023-07-02T05:06:44;97789.88;;;18.01;62.10
72587;BME280;60621;49.576;11.024;2023-07-02T05:07:46;97780.94;;;17.91;62.57
72587;BME280;60621;49.576;11.024;2023-07-02T05:08:47;97786.59;;;17.93;62.84
72587;BME280;60621;49.576;11.024;2023-07-02T05:09:49;97780.50;;;17.92;62.93
72587;BME280;60621;49.576;11.024;2023-07-02T05:10:53;97786.69;;;18.06;61.77
72587;BME280;60621;49.576;11.024;2023-07-02T05:11:54;97790.84;;;18.07;61.98
72587;BME280;60621;49.576;11.024;2023-07-02T05:12:56;97788.75;;;17.98;62.45
72587;BME280;60621;49.576;11.024;2023-07-02T05:13:57;97787.44;;;17.90;63.01
72587;BME280;60621;49.576;11.024;2023-07-02T05:14:59;97787.00;;;17.91;63.08
72587;BME280;60621;49.576;11.024;2023-07-02T05:16:04;97791.59;;;18.07;62.43
72587;BME280;60621;49.576;11.024;2023-07-02T05:17:19;97795.19;;;18.17;61.49
72587;BME280;60621;49.576;11.024;2023-07-02T05:18:21;97798.94;;;18.36;61.06
72587;BME280;60621;49.576;11.024;2023-07-02T05:19:23;97800.09;;;18.51;60.60
72587;BME280;60621;49.576;11.024;2023-07-02T05:20:36;97797.38;;;18.38;60.79
72587;BME280;60621;49.576;11.024;2023-07-02T05:21:40;97800.31;;;18.28;61.11
72587;BME280;60621;49.576;11.024;2023-07-02T05:22:42;97798.78;;;18.27;61.18
72587;BME280;60621;49.576;11.024;2023-07-02T05:23:44;97804.06;;;18.14;61.68
72587;BME280;60621;49.576;11.024;2023-07-02T05:24:45;97805.88;;;18.17;61.46
72587;BME280;60621;49.576;11.024;2023-07-02T05:25:47;97802.72;;;18.06;62.08